Time;durP1;ratioP1;P1;durP2;ratioP2;P2;SDS_P1;SDS_P2;PMS_P1;PMS_P2;Temp;Humidity;BMP_temperature;BMP_pressure;BME280_temperature;BME280_humidity;BME280_pressure;Samples;Min_cycle;Max_cycle;Signal;HPM_P1;HPM_P2
2022/07/28 00:02:03;;;;;;;4.93;2.83;;;;;;;;;;5106352;28;20530;-73
2022/07/28 00:04:30;;;;;;;6.03;2.83;;;;;;;;;;5090309;28;20062;-73
2022/07/28 00:06:56;;;;;;;4.82;2.70;;;;;;;;;;5083734;28;20039;-73
2022/07/28 00:09:22;;;;;;;4.72;2.58;;;;;;;;;;5087446;28;20477;-73
2022/07/28 00:11:48;;;;;;;6.45;3.13;;;;;;;;;;5080872;28;20052;-73
2022/07/28 00:14:14;;;;;;;6.22;2.92;;;;;;;;;;5089210;28;20090;-73
2022/07/28 00:16:40;;;;;;;6.28;3.15;;;;;;;;;;5088044;28;20036;-73
2022/07/28 00:19:07;;;;;;;6.85;2.97;;;;;;;;;;5099788;28;20040;-72
2022/07/28 00:21:32;;;;;;;3.13;2.10;;;13.90;99.90;;;;;;5101302;28;20115;-73
2022/07/28 00:23:58;;;;;;;4.03;2.55;;;13.10;99.90;;;;;;5079860;28;20127;-71
2022/07/28 00:26:24;;;;;;;6.47;2.45;;;12.90;99.90;;;;;;5074331;28;20587;-71
2022/07/28 00:28:50;;;;;;;4.78;2.50;;;12.90;99.90;;;;;;5083719;28;20086;-71
2022/07/28 00:31:16;;;;;;;3.95;2.35;;;12.80;99.90;;;;;;5084144;28;20393;-72
2022/07/28 00:33:42;;;;;;;3.65;2.17;;;12.80;99.90;;;;;;5076053;28;20040;-72
2022/07/28 00:36:09;;;;;;;5.65;3.08;;;12.80;99.90;;;;;;5088363;28;20032;-72
2022/07/28 00:38:36;;;;;;;5.88;2.72;;;12.80;99.90;;;;;;5074260;28;20032;-71
2022/07/28 00:41:11;;;;;;;5.07;2.75;;;12.80;99.90;;;;;;5086866;28;20032;-72
2022/07/28 00:43:41;;;;;;;8.05;2.42;;;12.70;99.90;;;;;;5089955;28;20097;-73
2022/07/28 00:46:07;;;;;;;4.45;2.70;;;12.80;99.90;;;;;;5091034;28;20489;-73
2022/07/28 00:48:36;;;;;;;4.00;2.53;;;12.80;99.90;;;;;;5084805;28;20282;-73
2022/07/28 00:51:02;;;;;;;3.47;2.38;;;12.80;99.90;;;;;;5084366;28;20052;-73
2022/07/28 00:53:29;;;;;;;5.15;2.63;;;12.80;99.90;;;;;;5089274;28;20409;-72
2022/07/28 00:55:54;;;;;;;3.90;2.63;;;12.80;99.90;;;;;;5090726;28;20043;-73
2022/07/28 00:58:20;;;;;;;4.63;2.42;;;12.80;99.90;;;;;;5089790;28;20043;-73
2022/07/28 01:00:46;;;;;;;5.47;2.40;;;12.80;99.90;;;;;;5090630;28;20413;-73
2022/07/28 01:03:12;;;;;;;4.85;2.05;;;12.70;99.90;;;;;;5104686;28;20043;-73
2022/07/28 01:06:03;;;;;;;4.63;2.28;;;12.70;99.90;;;;;;5086025;28;20478;-72
2022/07/28 01:08:44;;;;;;;5.72;2.95;;;12.70;99.90;;;;;;5102844;28;20130;-73
2022/07/28 01:11:13;;;;;;;3.08;1.60;;;12.70;99.90;;;;;;5105258;28;20036;-73
2022/07/28 01:13:48;;;;;;;3.50;2.40;;;12.70;99.90;;;;;;5089247;28;20131;-73
2022/07/28 01:16:14;;;;;;;4.57;2.65;;;12.70;99.90;;;;;;5090755;28;20428;-73
2022/07/28 01:19:11;;;;;;;4.82;2.20;;;12.70;99.90;;;;;;5106617;28;20093;-73
2022/07/28 01:21:41;;;;;;;4.25;2.25;;;12.70;99.90;;;;;;5087013;28;20047;-72
2022/07/28 01:24:10;;;;;;;4.63;2.33;;;12.70;99.90;;;;;;5090614;28;20249;-73
2022/07/28 01:26:55;;;;;;;4.40;2.35;;;12.70;99.90;;;;;;5105955;28;20040;-72
2022/07/28 01:29:33;;;;;;;5.38;2.50;;;12.70;99.90;;;;;;5088906;28;20047;-73
2022/07/28 01:32:12;;;;;;;5.50;2.67;;;12.70;99.90;;;;;;5090448;28;20040;-73
2022/07/28 01:35:04;;;;;;;3.55;2.03;;;12.60;99.90;;;;;;5088697;28;20109;-73
2022/07/28 01:37:31;;;;;;;3.70;2.10;;;12.60;99.90;;;;;;5084323;28;20044;-73
2022/07/28 01:40:01;;;;;;;6.75;2.72;;;12.60;99.90;;;;;;5090080;28;20502;-73
2022/07/28 01:42:34;;;;;;;3.45;1.75;;;12.70;99.90;;;;;;5089641;28;20047;-73
2022/07/28 01:45:03;;;;;;;3.78;2.28;;;12.60;99.90;;;;;;5076491;28;20072;-73
2022/07/28 01:47:30;;;;;;;3.28;1.92;;;;;;;;;;5088160;28;20043;-73
2022/07/28 01:49:58;;;;;;;3.85;2.70;;;;;;;;;;5088596;28;20066;-73
2022/07/28 01:52:25;;;;;;;4.47;2.53;;;;;;;;;;5088429;28;20052;-72
2022/07/28 01:54:52;;;;;;;2.92;1.90;;;;;;;;;;5081962;28;20040;-73
2022/07/28 01:57:19;;;;;;;6.88;2.60;;;;;;;;;;5090130;28;20036;-73
2022/07/28 01:59:46;;;;;;;4.15;2.38;;;;;;;;;;5089678;28;20086;-73
2022/07/28 02:02:15;;;;;;;5.93;2.30;;;;;;;;;;5088540;28;20040;-73
2022/07/28 02:04:42;;;;;;;4.82;2.47;;;;;;;;;;5104720;28;20079;-73
2022/07/28 02:07:09;;;;;;;3.67;2.42;;;;;;;;;;5102559;28;20307;-73
2022/07/28 02:09:36;;;;;;;4.78;2.22;;;;;;;;;;5088399;28;20519;-73
2022/07/28 02:12:02;;;;;;;3.50;1.88;;;;;;;;;;5089227;28;20036;-73
2022/07/28 02:14:29;;;;;;;2.85;1.98;;;;;;;;;;5089652;28;20063;-73
2022/07/28 02:17:01;;;;;;;6.03;2.20;;;;;;;;;;5088963;28;20036;-73
2022/07/28 02:19:28;;;;;;;4.40;1.83;;;12.60;99.90;;;;;;5089482;28;20044;-73
2022/07/28 02:21:55;;;;;;;3.30;2.10;;;12.40;99.90;;;;;;5087805;28;20044;-73
2022/07/28 02:24:25;;;;;;;3.33;2.28;;;12.40;99.90;;;;;;5077090;28;20405;-74
2022/07/28 02:27:24;;;;;;;4.50;2.00;;;12.30;99.90;;;;;;5088949;28;20478;-74
2022/07/28 02:30:04;;;;;;;3.40;2.00;;;12.40;99.90;;;;;;5084934;28;20044;-74
2022/07/28 02:32:59;;;;;;;3.10;2.15;;;12.30;99.90;;;;;;5088092;28;20032;-74
2022/07/28 02:35:32;;;;;;;3.65;1.80;;;12.30;99.90;;;;;;5086442;28;20066;-74
2022/07/28 02:38:01;;;;;;;3.45;1.63;;;;;;;;;;5089473;28;20101;-74
2022/07/28 02:40:34;;;;;;;5.57;2.00;;;;;;;;;;5089227;28;20127;-71
2022/07/28 02:43:00;;;;;;;;;;;;;;;;;;5102739;28;20173;-72
2022/07/28 02:45:27;;;;;;;3.75;2.47;;;;;;;;;;5083097;28;20010;-72
2022/07/28 02:47:56;;;;;;;4.45;2.20;;;;;;;;;;5089462;28;20092;-73
2022/07/28 02:50:24;;;;;;;3.15;2.05;;;;;;;;;;5087909;28;20052;-72
2022/07/28 02:52:53;;;;;;;9.98;2.92;;;;;;;;;;5088496;28;20051;-73
2022/07/28 02:55:19;;;;;;;5.85;2.25;;;;;;;;;;5104418;28;20040;-72
2022/07/28 02:57:47;;;;;;;3.38;2.45;;;;;;;;;;5092503;28;20098;-73
2022/07/28 03:00:14;;;;;;;3.40;1.60;;;;;;;;;;5108443;28;20055;-72
2022/07/28 03:02:42;;;;;;;2.30;1.70;;;;;;;;;;5092105;28;20044;-72
2022/07/28 03:05:09;;;;;;;4.13;1.70;;;;;;;;;;5107397;28;20059;-72
2022/07/28 03:07:35;;;;;;;5.25;2.00;;;;;;;;;;5093020;28;20036;-72
2022/07/28 03:10:02;;;;;;;2.83;1.75;;;;;;;;;;5090876;28;20097;-73
2022/07/28 03:12:29;;;;;;;3.85;1.83;;;;;;;;;;5091841;28;20506;-72
2022/07/28 03:14:55;;;;;;;3.55;2.00;;;;;;;;;;5089140;28;20120;-73
2022/07/28 03:17:21;;;;;;;3.58;2.10;;;;;;;;;;5078828;28;20028;-72
2022/07/28 03:19:48;;;;;;;3.33;1.60;;;;;;;;;;5107782;28;20134;-72
2022/07/28 03:22:14;;;;;;;4.57;2.22;;;;;;;;;;5074659;28;20124;-72
2022/07/28 03:24:49;;;;;;;4.25;1.95;;;;;;;;;;5108333;28;20123;-73
2022/07/28 03:27:29;;;;;;;3.60;2.08;;;;;;;;;;5091517;28;20388;-72
2022/07/28 03:30:06;;;;;;;4.22;2.05;;;;;;;;;;5107957;28;20282;-72
2022/07/28 03:32:34;;;;;;;4.70;2.17;;;;;;;;;;5074469;28;20040;-73
2022/07/28 03:35:00;;;;;;;2.67;1.52;;;;;;;;;;5082586;28;20055;-73
2022/07/28 03:37:37;;;;;;;3.28;2.15;;;;;;;;;;5091169;28;20036;-73
2022/07/28 03:40:04;;;;;;;21.23;2.88;;;;;;;;;;5089914;28;20028;-73
2022/07/28 03:42:30;;;;;;;3.88;1.63;;;;;;;;;;5089435;28;20066;-73
2022/07/28 03:44:57;;;;;;;3.78;1.88;;;;;;;;;;5108379;28;20106;-73
2022/07/28 03:47:23;;;;;;;2.63;1.50;;;;;;;;;;5090738;28;20135;-73
2022/07/28 03:49:50;;;;;;;2.38;1.90;;;;;;;;;;5089879;28;20060;-73
2022/07/28 03:52:17;;;;;;;4.70;1.80;;;;;;;;;;5092250;28;20043;-73
2022/07/28 03:54:43;;;;;;;3.50;2.03;;;;;;;;;;5090483;28;20444;-73
2022/07/28 03:57:10;;;;;;;3.70;1.88;;;;;;;;;;5102780;28;20398;-73
2022/07/28 03:59:36;;;;;;;5.97;1.75;;;;;;;;;;5088478;28;20501;-73
2022/07/28 04:02:02;;;;;;;8.43;2.15;;;;;;;;;;5107121;28;20261;-73
2022/07/28 04:04:28;;;;;;;2.25;1.58;;;;;;;;;;5088391;28;20371;-73
2022/07/28 04:06:54;;;;;;;3.08;1.88;;;;;;;;;;5101955;28;20110;-73
2022/07/28 04:09:21;;;;;;;2.78;1.42;;;;;;;;;;5086154;28;20044;-73
2022/07/28 04:11:48;;;;;;;4.35;2.05;;;;;;;;;;5086086;28;20032;-73
2022/07/28 04:14:16;;;;;;;3.83;1.73;;;;;;;;;;5107830;28;20100;-73
2022/07/28 04:16:42;;;;;;;2.58;2.00;;;;;;;;;;5107093;28;20119;-73
2022/07/28 04:19:09;;;;;;;2.38;1.70;;;;;;;;;;5092070;28;20044;-72
2022/07/28 04:21:35;;;;;;;4.80;1.85;;;;;;;;;;5090115;28;20066;-73
2022/07/28 04:24:01;;;;;;;2.00;1.40;;;12.30;99.90;;;;;;5107487;28;20044;-72
2022/07/28 04:26:27;;;;;;;2.67;1.45;;;11.90;99.90;;;;;;5090196;28;20422;-74
2022/07/28 04:28:52;;;;;;;2.90;1.70;;;11.90;99.90;;;;;;5087078;28;20625;-74
2022/07/28 04:31:18;;;;;;;5.07;2.03;;;11.90;99.90;;;;;;5086180;28;20074;-75
2022/07/28 04:33:45;;;;;;;4.72;2.22;;;11.90;99.90;;;;;;5084016;28;20409;-72
2022/07/28 04:36:11;;;;;;;2.72;1.40;;;11.80;99.90;;;;;;5085668;28;20044;-72
2022/07/28 04:38:37;;;;;;;4.80;1.80;;;11.80;99.90;;;;;;5086546;28;20490;-72
2022/07/28 04:41:03;;;;;;;2.97;1.70;;;;;;;;;;5100019;28;20123;-72
2022/07/28 04:43:29;;;;;;;2.83;1.92;;;;;;;;;;5088434;28;20044;-72
2022/07/28 04:45:55;;;;;;;2.22;1.58;;;;;;;;;;5071547;28;20048;-72
2022/07/28 04:48:22;;;;;;;3.50;1.95;;;;;;;;;;5093936;28;20086;-72
2022/07/28 04:50:50;;;;;;;5.72;2.28;;;;;;;;;;5083149;28;20220;-72
2022/07/28 04:53:17;;;;;;;4.60;1.60;;;;;;;;;;5096111;28;20294;-72
2022/07/28 04:55:43;;;;;;;3.78;1.83;;;;;;;;;;5081686;28;20517;-72
2022/07/28 04:58:11;;;;;;;5.43;1.80;;;;;;;;;;5067094;28;20040;-72
2022/07/28 05:00:37;;;;;;;3.22;1.58;;;;;;;;;;5105709;28;20036;-72
2022/07/28 05:03:04;;;;;;;5.00;1.60;;;;;;;;;;5083880;28;20044;-72
2022/07/28 05:05:30;;;;;;;5.05;1.60;;;;;;;;;;5077188;28;20047;-73
2022/07/28 05:07:56;;;;;;;4.15;1.85;;;;;;;;;;5085599;28;20106;-72
2022/07/28 05:10:22;;;;;;;4.68;2.30;;;;;;;;;;5060502;28;20498;-73
2022/07/28 05:12:53;;;;;;;2.28;1.77;;;;;;;;;;5089498;28;20109;-72
2022/07/28 05:15:19;;;;;;;3.13;2.05;;;;;;;;;;5085554;28;20036;-72
2022/07/28 05:17:45;;;;;;;3.92;1.70;;;;;;;;;;5089297;28;20444;-72
2022/07/28 05:20:12;;;;;;;3.72;2.17;;;;;;;;;;5089278;28;20540;-72
2022/07/28 05:22:46;;;;;;;7.20;1.98;;;;;;;;;;5103345;28;20082;-72
2022/07/28 05:25:16;;;;;;;4.05;1.85;;;;;;;;;;5089283;28;20590;-72
2022/07/28 05:27:43;;;;;;;7.20;1.90;;;;;;;;;;5090760;28;20028;-72
2022/07/28 05:30:11;;;;;;;3.45;2.15;;;;;;;;;;5105709;28;20428;-72
2022/07/28 05:32:37;;;;;;;2.38;1.92;;;;;;;;;;5097484;28;20566;-72
2022/07/28 05:35:03;;;;;;;3.13;1.83;;;;;;;;;;5088858;28;20296;-72
2022/07/28 05:37:32;;;;;;;4.75;2.47;;;;;;;;;;5090367;28;20040;-72
2022/07/28 05:39:58;;;;;;;5.15;2.15;;;;;;;;;;5088755;28;20112;-72
2022/07/28 05:42:27;;;;;;;3.00;2.15;;;;;;;;;;5101760;28;20132;-72
2022/07/28 05:44:53;;;;;;;7.68;2.28;;;;;;;;;;5073608;28;20809;-73
2022/07/28 05:47:19;;;;;;;4.93;2.05;;;;;;;;;;5055833;28;20039;-73
2022/07/28 05:49:45;;;;;;;4.18;2.25;;;;;;;;;;5071334;28;20561;-72
2022/07/28 05:52:12;;;;;;;6.03;2.72;;;;;;;;;;5056002;28;20134;-72
2022/07/28 05:54:38;;;;;;;7.47;2.78;;;;;;;;;;5058028;28;20050;-73
2022/07/28 05:57:04;;;;;;;4.22;2.72;;;;;;;;;;5075070;28;20088;-72
2022/07/28 05:59:30;;;;;;;6.00;2.60;;;;;;;;;;5076297;28;20039;-73
2022/07/28 06:01:56;;;;;;;5.97;3.28;;;;;;;;;;5056229;28;20055;-72
2022/07/28 06:04:22;;;;;;;6.50;2.88;;;;;;;;;;5075086;28;20048;-73
2022/07/28 06:06:48;;;;;;;12.93;2.72;;;;;;;;;;5074823;28;20077;-73
2022/07/28 06:09:14;;;;;;;3.75;2.08;;;;;;;;;;5076412;28;20048;-72
2022/07/28 06:11:41;;;;;;;7.45;2.85;;;;;;;;;;5074653;28;20130;-73
2022/07/28 06:14:07;;;;;;;6.72;2.40;;;;;;;;;;5074555;28;20058;-73
2022/07/28 06:16:33;;;;;;;3.78;2.50;;;;;;;;;;5071562;28;20524;-73
2022/07/28 06:18:59;;;;;;;5.03;3.28;;;;;;;;;;5074441;28;20036;-73
2022/07/28 06:21:25;;;;;;;3.53;2.28;;;;;;;;;;5076601;28;20149;-73
2022/07/28 06:23:51;;;;;;;5.60;2.13;;;;;;;;;;5076888;28;20069;-73
2022/07/28 06:26:19;;;;;;;4.22;1.92;;;;;;;;;;5073235;28;20084;-73
2022/07/28 06:28:46;;;;;;;5.10;2.20;;;;;;;;;;5074064;28;20043;-73
2022/07/28 06:31:12;;;;;;;3.38;1.73;;;;;;;;;;5075802;28;20454;-73
2022/07/28 06:33:38;;;;;;;2.55;1.50;;;;;;;;;;5076516;28;20401;-73
2022/07/28 06:36:04;;;;;;;4.57;2.08;;;;;;;;;;5072787;28;20312;-73
2022/07/28 06:38:31;;;;;;;3.95;1.88;;;;;;;;;;5076772;28;20123;-72
2022/07/28 06:40:58;;;;;;;4.85;1.58;;;;;;;;;;5072570;28;20040;-73
2022/07/28 06:43:25;;;;;;;5.82;1.77;;;;;;;;;;5076542;28;20417;-73
2022/07/28 06:45:51;;;;;;;2.88;1.52;;;;;;;;;;5074229;28;20517;-73
2022/07/28 06:48:18;;;;;;;2.67;1.30;;;;;;;;;;5084588;28;20047;-72
2022/07/28 06:50:45;;;;;;;2.67;1.15;;;;;;;;;;5082572;28;20036;-73
2022/07/28 06:53:11;;;;;;;1.73;1.17;;;;;;;;;;5087356;28;20131;-73
2022/07/28 06:55:37;;;;;;;6.88;2.00;;;;;;;;;;5085737;28;20289;-73
2022/07/28 06:58:04;;;;;;;4.70;1.70;;;;;;;;;;5086661;28;20040;-73
2022/07/28 07:00:30;;;;;;;6.05;1.98;;;;;;;;;;5087743;28;20070;-73
2022/07/28 07:02:56;;;;;;;3.35;1.13;;;;;;;;;;5083774;28;20037;-73
2022/07/28 07:05:22;;;;;;;6.22;1.60;;;;;;;;;;5075995;28;20281;-73
2022/07/28 07:07:49;;;;;;;3.75;2.17;;;;;;;;;;5097793;28;20080;-73
2022/07/28 07:10:15;;;;;;;2.03;1.10;;;;;;;;;;5091963;28;20105;-73
2022/07/28 07:12:41;;;;;;;8.40;2.50;;;;;;;;;;5088991;28;20305;-73
2022/07/28 07:15:07;;;;;;;4.95;1.75;;;;;;;;;;5088479;28;20462;-73
2022/07/28 07:17:36;;;;;;;4.32;1.95;;;;;;;;;;5105086;28;20036;-73
2022/07/28 07:20:02;;;;;;;5.47;1.42;;;;;;;;;;5087135;28;20046;-73
2022/07/28 07:22:29;;;;;;;5.15;2.47;;;;;;;;;;5087992;28;20434;-73
2022/07/28 07:24:55;;;;;;;3.50;1.60;;;;;;;;;;5104570;28;20394;-73
2022/07/28 07:27:22;;;;;;;4.95;1.77;;;;;;;;;;5071036;28;20048;-73
2022/07/28 07:29:48;;;;;;;2.58;1.35;;;;;;;;;;5104250;28;20048;-73
2022/07/28 07:32:14;;;;;;;1.90;1.35;;;;;;;;;;5070714;28;20165;-73
2022/07/28 07:34:41;;;;;;;4.97;1.50;;;;;;;;;;5087349;28;20477;-73
2022/07/28 07:37:12;;;;;;;10.20;2.33;;;;;;;;;;5085496;28;20029;-73
2022/07/28 07:39:38;;;;;;;6.47;1.33;;;;;;;;;;5105026;28;20197;-73
2022/07/28 07:42:04;;;;;;;5.60;1.42;;;;;;;;;;5089623;28;20093;-73
2022/07/28 07:44:30;;;;;;;1.83;1.00;;;;;;;;;;5088252;28;20043;-73
2022/07/28 07:46:57;;;;;;;3.08;1.30;;;;;;;;;;5090064;28;20032;-73
2022/07/28 07:49:23;;;;;;;2.20;1.02;;;;;;;;;;5086673;28;20044;-73
2022/07/28 07:51:49;;;;;;;3.72;1.02;;;;;;;;;;5073271;28;20048;-72
2022/07/28 07:54:15;;;;;;;2.75;1.10;;;;;;;;;;5077917;28;20036;-73
2022/07/28 07:56:41;;;;;;;3.55;1.42;;;;;;;;;;5086016;28;20092;-73
2022/07/28 07:59:08;;;;;;;3.92;1.10;;;;;;;;;;5084949;28;20470;-73
2022/07/28 08:01:34;;;;;;;2.75;1.13;;;;;;;;;;5082484;28;20423;-73
2022/07/28 08:04:00;;;;;;;3.50;1.00;;;;;;;;;;5078586;28;20044;-73
2022/07/28 08:06:27;;;;;;;5.40;1.08;;;;;;;;;;5085379;28;20110;-73
2022/07/28 08:08:53;;;;;;;1.60;1.10;;;;;;;;;;5069588;28;20439;-73
2022/07/28 08:11:20;;;;;;;2.65;1.00;;;;;;;;;;5086203;28;20127;-73
2022/07/28 08:13:46;;;;;;;2.53;0.90;;;;;;;;;;5086206;28;20093;-74
2022/07/28 08:16:12;;;;;;;3.25;1.20;;;;;;;;;;5087862;28;20075;-73
2022/07/28 08:18:38;;;;;;;2.22;1.10;;;;;;;;;;5082691;28;20074;-73
2022/07/28 08:21:04;;;;;;;2.53;1.10;;;;;;;;;;5085906;28;20774;-73
2022/07/28 08:23:30;;;;;;;4.63;1.10;;;;;;;;;;5086755;28;20105;-73
2022/07/28 08:25:57;;;;;;;2.40;1.30;;;;;;;;;;5097357;28;20036;-73
2022/07/28 08:28:23;;;;;;;2.42;1.00;;;;;;;;;;5101178;28;20040;-73
2022/07/28 08:30:49;;;;;;;2.97;1.10;;;;;;;;;;5079032;28;20289;-73
2022/07/28 08:33:20;;;;;;;5.30;2.30;;;;;;;;;;5082332;28;20044;-73
2022/07/28 08:35:47;;;;;;;2.95;1.40;;;;;;;;;;5082880;28;20520;-73
2022/07/28 08:38:14;;;;;;;3.35;1.00;;;;;;;;;;5084198;28;20118;-72
2022/07/28 08:40:41;;;;;;;3.08;1.20;;;;;;;;;;5067643;28;20440;-73
2022/07/28 08:43:25;;;;;;;3.90;1.20;;;;;;;;;;5085557;28;20402;-73
2022/07/28 08:45:51;;;;;;;2.95;1.33;;;;;;;;;;5082797;28;20495;-72
2022/07/28 08:48:22;;;;;;;3.03;0.88;;;;;;;;;;5069090;28;20090;-72
2022/07/28 08:50:49;;;;;;;2.15;1.00;;;;;;;;;;5077412;28;20171;-73
2022/07/28 08:53:16;;;;;;;2.67;1.10;;;;;;;;;;5094240;28;20135;-72
2022/07/28 08:55:43;;;;;;;4.25;1.25;;;;;;;;;;5064747;28;20032;-73
2022/07/28 08:58:11;;;;;;;2.40;1.20;;;;;;;;;;5084311;28;20106;-73
2022/07/28 09:00:38;;;;;;;2.40;0.90;;;;;;;;;;5084187;28;20028;-72
2022/07/28 09:03:04;;;;;;;3.40;1.30;;;;;;;;;;5084055;28;20090;-72
2022/07/28 09:05:31;;;;;;;1.30;0.90;;;;;;;;;;5083073;28;20051;-73
2022/07/28 09:07:58;;;;;;;1.65;1.00;;;;;;;;;;5085712;28;20406;-73
2022/07/28 09:10:24;;;;;;;2.25;1.05;;;;;;;;;;5086816;28;20070;-72
2022/07/28 09:12:50;;;;;;;2.78;1.00;;;;;;;;;;5083777;28;20082;-72
2022/07/28 09:15:16;;;;;;;2.25;1.13;;;;;;;;;;5083776;28;20406;-73
2022/07/28 09:17:43;;;;;;;1.95;1.10;;;;;;;;;;5083262;28;20052;-72
2022/07/28 09:20:10;;;;;;;5.60;1.42;;;;;;;;;;5084075;28;20044;-72
2022/07/28 09:22:54;;;;;;;3.92;1.20;;;;;;;;;;5086962;28;20062;-73
2022/07/28 09:25:21;;;;;;;2.30;0.93;;;;;;;;;;5083692;28;20083;-73
2022/07/28 09:27:47;;;;;;;2.88;1.35;;;;;;;;;;5097452;28;20044;-73
2022/07/28 09:30:13;;;;;;;3.03;1.30;;;;;;;;;;5100937;28;20097;-72
2022/07/28 09:32:39;;;;;;;4.05;1.80;;;;;;;;;;5083088;28;20112;-72
2022/07/28 09:35:18;;;;;;;6.80;1.67;;;;;;;;;;5081435;28;20534;-72
2022/07/28 09:37:44;;;;;;;1.95;1.30;;;;;;;;;;5079053;28;20784;-73
2022/07/28 09:40:11;;;;;;;1.65;1.25;;;;;;;;;;5078616;28;20044;-72
2022/07/28 09:42:45;;;;;;;3.75;1.17;;;;;;;;;;5088917;28;20036;-72
2022/07/28 09:45:11;;;;;;;3.15;1.10;;;;;;;;;;5104149;28;20039;-72
2022/07/28 09:47:39;;;;;;;4.72;1.38;;;;;;;;;;5057560;28;20127;-72
2022/07/28 09:50:05;;;;;;;2.60;1.25;;;;;;;;;;5084843;28;20059;-72
2022/07/28 09:52:36;;;;;;;1.65;1.20;;;;;;;;;;5083857;28;20083;-73
2022/07/28 09:55:04;;;;;;;2.53;1.45;;;;;;;;;;5084067;28;20051;-73
2022/07/28 09:57:32;;;;;;;4.20;1.13;;;;;;;;;;5085945;28;20285;-73
2022/07/28 09:59:58;;;;;;;2.85;1.27;;;;;;;;;;5079048;28;20100;-72
2022/07/28 10:02:25;;;;;;;4.82;1.13;;;;;;;;;;5088062;28;20033;-72
2022/07/28 10:04:52;;;;;;;1.98;1.00;;;;;;;;;;5083730;28;20040;-72
2022/07/28 10:07:19;;;;;;;3.28;1.23;;;;;;;;;;5105552;28;20485;-72
2022/07/28 10:10:03;;;;;;;6.72;1.40;;;;;;;;;;5085642;28;20032;-73
2022/07/28 10:12:30;;;;;;;3.05;1.23;;;;;;;;;;5088344;28;20376;-72
2022/07/28 10:14:58;;;;;;;1.63;1.00;;;;;;;;;;5081186;28;20531;-72
2022/07/28 10:17:27;;;;;;;2.65;0.85;;;;;;;;;;5089611;28;20519;-72
2022/07/28 10:19:56;;;;;;;2.00;1.30;;;;;;;;;;5088282;28;20048;-73
2022/07/28 10:22:24;;;;;;;2.80;1.13;;;;;;;;;;5088426;28;20573;-72
2022/07/28 10:24:52;;;;;;;4.30;0.82;;;;;;;;;;5105382;28;20355;-72
2022/07/28 10:27:19;;;;;;;1.95;1.10;;;;;;;;;;5105281;28;20046;-72
2022/07/28 10:29:46;;;;;;;1.42;0.80;;;;;;;;;;5104611;28;20074;-73
2022/07/28 10:32:12;;;;;;;2.40;1.45;;;;;;;;;;5104961;28;20093;-73
2022/07/28 10:34:44;;;;;;;3.42;1.20;;;;;;;;;;5103218;28;20036;-73
2022/07/28 10:37:18;;;;;;;2.38;1.25;;;;;;;;;;5087397;28;20051;-73
2022/07/28 10:39:47;;;;;;;2.33;1.00;;;;;;;;;;5104605;28;20036;-72
2022/07/28 10:42:14;;;;;;;3.03;1.17;;;;;;;;;;5081629;28;20526;-72
2022/07/28 10:44:42;;;;;;;3.90;1.55;;;;;;;;;;5087953;28;20067;-73
2022/07/28 10:47:09;;;;;;;4.03;1.25;;;;;;;;;;5104625;28;20052;-72
2022/07/28 10:49:35;;;;;;;1.00;0.90;;;;;;;;;;5087321;28;20501;-73
2022/07/28 10:52:02;;;;;;;4.47;1.10;;;;;;;;;;5088000;28;20447;-73
2022/07/28 10:54:30;;;;;;;3.67;1.90;;;;;;;;;;5097068;28;20489;-73
2022/07/28 10:56:58;;;;;;;4.40;1.17;;;;;;;;;;5087929;28;20394;-73
2022/07/28 10:59:42;;;;;;;5.10;1.33;;;;;;;;;;5089370;28;20032;-73
2022/07/28 11:02:09;;;;;;;3.67;1.55;;;;;;;;;;5097409;28;20045;-73
2022/07/28 11:04:47;;;;;;;2.55;1.40;;;;;;;;;;5101662;28;20062;-73
2022/07/28 11:07:15;;;;;;;1.80;1.33;;;;;;;;;;5088175;28;20044;-73
2022/07/28 11:09:41;;;;;;;2.22;1.23;;;;;;;;;;5088541;28;20043;-72
2022/07/28 11:12:08;;;;;;;4.05;1.25;;;;;;;;;;5088916;28;20040;-72
2022/07/28 11:14:36;;;;;;;1.65;1.00;;;;;;;;;;5106039;28;20043;-73
2022/07/28 11:17:05;;;;;;;5.88;1.58;;;;;;;;;;5091165;28;20128;-73
2022/07/28 11:19:52;;;;;;;3.10;1.00;;;;;;;;;;5108872;28;20392;-73
2022/07/28 11:22:20;;;;;;;2.47;1.40;;;;;;;;;;5090667;28;20032;-73
2022/07/28 11:27:40;;;;;;;2.63;1.10;;;;;;;;;;5091856;28;20054;-73
2022/07/28 11:30:07;;;;;;;1.50;0.85;;;;;;;;;;5092094;28;20044;-73
2022/07/28 11:33:02;;;;;;;1.50;1.00;;;;;;;;;;5109051;28;20036;-73
2022/07/28 11:35:29;;;;;;;2.63;1.42;;;;;;;;;;5076120;28;20064;-74
2022/07/28 11:38:02;;;;;;;3.63;1.35;;;;;;;;;;5091622;28;20088;-73
2022/07/28 11:40:30;;;;;;;4.05;1.30;;;;;;;;;;5092467;28;20047;-74
2022/07/28 11:43:15;;;;;;;2.88;0.90;;;;;;;;;;5084476;28;20139;-74
2022/07/28 11:45:41;;;;;;;3.92;1.27;;;;;;;;;;5092162;28;20051;-73
2022/07/28 11:48:14;;;;;;;3.22;1.10;;;;;;;;;;5092477;28;20047;-74
2022/07/28 11:50:41;;;;;;;2.90;0.90;;;;;;;;;;5085580;28;20039;-73
2022/07/28 11:53:07;;;;;;;2.80;1.58;;;;;;;;;;5092353;28;20686;-71
2022/07/28 11:55:33;;;;;;;2.80;1.55;;;;;;;;;;5090883;28;20040;-73
2022/07/28 11:58:05;;;;;;;1.75;1.33;;;;;;;;;;5092394;28;20043;-73
2022/07/28 12:00:31;;;;;;;3.05;1.10;;;;;;;;;;5083193;28;20051;-73
2022/07/28 12:02:59;;;;;;;2.83;1.27;;;;;;;;;;5107808;28;20113;-73
2022/07/28 12:05:26;;;;;;;1.88;1.40;;;;;;;;;;5090380;28;20040;-72
2022/07/28 12:07:52;;;;;;;2.40;1.17;;;;;;;;;;5091950;28;20118;-72
2022/07/28 12:10:22;;;;;;;1.80;0.98;;;;;;;;;;5107372;28;20036;-73
2022/07/28 12:12:50;;;;;;;1.38;1.02;;;;;;;;;;5090958;28;20044;-72
2022/07/28 12:15:16;;;;;;;2.15;0.88;;;;;;;;;;5107020;28;20056;-72
2022/07/28 12:17:42;;;;;;;3.65;1.10;;;;;;;;;;5074653;28;20036;-73
2022/07/28 12:20:10;;;;;;;3.28;1.00;;;;;;;;;;5089541;28;20397;-73
2022/07/28 12:22:37;;;;;;;2.70;1.17;;;;;;;;;;5107842;28;20371;-73
2022/07/28 12:25:03;;;;;;;5.05;1.30;;;;;;;;;;5089927;28;20501;-72
2022/07/28 12:27:29;;;;;;;3.22;0.90;;;;;;;;;;5091766;28;20044;-73
2022/07/28 12:29:59;;;;;;;4.60;1.30;;;;;;;;;;5089712;28;20042;-72
2022/07/28 12:32:33;;;;;;;5.25;1.10;;;;;;;;;;5107481;28;20089;-73
2022/07/28 12:35:00;;;;;;;1.95;0.90;;;;;;;;;;5088728;28;20568;-72
2022/07/28 12:37:27;;;;;;;3.03;1.13;;;;;;;;;;5080225;28;20374;-72
2022/07/28 12:39:53;;;;;;;1.10;0.82;;;;;;;;;;5073511;28;20043;-72
2022/07/28 12:42:19;;;;;;;4.22;1.00;;;;;;;;;;5089915;28;20046;-72
2022/07/28 12:44:47;;;;;;;2.25;1.05;;;;;;;;;;5107334;28;20469;-73
2022/07/28 12:47:14;;;;;;;3.47;1.10;;;;;;;;;;5091189;28;20036;-73
2022/07/28 12:49:42;;;;;;;3.38;0.95;;;;;;;;;;5075294;28;20047;-73
2022/07/28 12:52:15;;;;;;;2.28;1.23;;;;;;;;;;5089070;28;20048;-73
2022/07/28 12:54:42;;;;;;;2.20;0.95;;;;;;;;;;5072837;28;20044;-72
2022/07/28 12:57:08;;;;;;;3.08;1.05;;;;;;;;;;5091404;28;20036;-73
2022/07/28 12:59:37;;;;;;;2.83;0.90;;;;;;;;;;5106860;28;20032;-73
2022/07/28 13:02:03;;;;;;;1.25;0.82;;;;;;;;;;5089595;28;20040;-73
2022/07/28 13:04:46;;;;;;;1.75;0.90;;;;;;;;;;5085377;28;20036;-73
2022/07/28 13:07:14;;;;;;;3.72;1.25;;;;;;;;;;5089582;28;20044;-73
2022/07/28 13:09:44;;;;;;;2.58;1.00;;;;;;;;;;5086347;28;20036;-72
2022/07/28 13:12:32;;;;;;;1.40;0.88;;;;;;;;;;5099957;28;20059;-73
2022/07/28 13:14:59;;;;;;;2.00;0.80;;;;;;;;;;5106091;28;20066;-73
2022/07/28 13:17:30;;;;;;;2.03;1.10;;;;;;;;;;5106648;28;20131;-73
2022/07/28 13:20:06;;;;;;;3.88;0.80;;;;;;;;;;5089460;28;20067;-73
2022/07/28 13:22:32;;;;;;;3.10;0.95;;;;;;;;;;5085897;28;20173;-73
2022/07/28 13:24:59;;;;;;;2.15;1.00;;;;;;;;;;5084224;28;20048;-73
2022/07/28 13:27:26;;;;;;;1.65;0.98;;;;;;;;;;5106187;28;20036;-73
2022/07/28 13:29:53;;;;;;;3.72;1.00;;;;;;;;;;5105323;28;20076;-73
2022/07/28 13:32:19;;;;;;;2.92;0.80;;;;;;;;;;5106317;28;20036;-73
2022/07/28 13:34:46;;;;;;;1.05;0.70;;;;;;;;;;5102700;28;20044;-73
2022/07/28 13:37:13;;;;;;;2.88;1.13;;;;;;;;;;5088086;28;20058;-73
2022/07/28 13:39:39;;;;;;;3.97;1.10;;;;;;;;;;5105655;28;20042;-72
2022/07/28 13:42:06;;;;;;;1.23;0.80;;;;;;;;;;5105767;28;20044;-73
2022/07/28 13:44:33;;;;;;;1.50;1.10;;;;;;;;;;5088932;28;20155;-72
2022/07/28 13:47:00;;;;;;;1.88;0.73;;;;;;;;;;5089986;28;20036;-73
2022/07/28 13:49:27;;;;;;;1.83;0.70;;;;;;;;;;5088652;28;20116;-72
2022/07/28 13:51:53;;;;;;;1.13;0.80;;;;;;;;;;5082044;28;20048;-72
2022/07/28 13:54:20;;;;;;;1.63;1.10;;;;;;;;;;5082314;28;20048;-73
2022/07/28 13:56:46;;;;;;;2.22;0.90;;;;;;;;;;5077284;28;20461;-73
2022/07/28 13:59:12;;;;;;;1.33;1.00;;;;;;;;;;5089004;28;20540;-73
2022/07/28 14:01:40;;;;;;;2.42;1.02;;;;;;;;;;5096977;28;20078;-73
2022/07/28 14:04:06;;;;;;;3.88;1.10;;;;;;;;;;5065332;28;20052;-73
2022/07/28 14:06:33;;;;;;;3.10;0.85;;;;;;;;;;5102880;28;20047;-73
2022/07/28 14:08:59;;;;;;;2.97;1.08;;;;;;;;;;5088000;28;20502;-73
2022/07/28 14:11:26;;;;;;;1.65;0.90;;;;;;;;;;5085711;28;20457;-73
2022/07/28 14:13:52;;;;;;;2.22;1.20;;;;;;;;;;5089388;28;20046;-73
2022/07/28 14:16:19;;;;;;;2.25;0.90;;;;;;;;;;5104841;28;20044;-73
2022/07/28 14:18:45;;;;;;;4.50;1.48;;;;;;;;;;5088133;28;20085;-73
2022/07/28 14:21:11;;;;;;;1.08;0.88;;;;;;;;;;5086700;28;20039;-73
2022/07/28 14:23:38;;;;;;;1.77;0.85;;;;;;;;;;5088628;28;20050;-73
2022/07/28 14:26:04;;;;;;;2.28;1.45;;;;;;;;;;5098876;28;20133;-73
2022/07/28 14:28:30;;;;;;;1.77;0.98;;;;;;;;;;5087675;28;20459;-73
2022/07/28 14:30:56;;;;;;;1.23;0.90;;;;;;;;;;5078371;28;20089;-73
2022/07/28 14:33:23;;;;;;;3.05;0.88;;;;;;;;;;5082262;28;20036;-73
2022/07/28 14:35:49;;;;;;;1.50;1.00;;;;;;;;;;5083899;28;20055;-73